sensor_id;sensor_type;location;lat;lon;timestamp;P1;durP1;ratioP1;P2;durP2;ratioP2
72611;SDS011;60655;52.182;4.474;2024-03-02T00:03:38;0.55;;;0.35;;
72611;SDS011;60655;52.182;4.474;2024-03-02T00:05:39;2.42;;;0.70;;
72611;SDS011;60655;52.182;4.474;2024-03-02T00:09:45;0.73;;;0.32;;
72611;SDS011;60655;52.182;4.474;2024-03-02T00:13:46;1.85;;;0.50;;
72611;SDS011;60655;52.182;4.474;2024-03-02T00:17:52;0.55;;;0.40;;
72611;SDS011;60655;52.182;4.474;2024-03-02T00:19:54;1.52;;;0.40;;
72611;SDS011;60655;52.182;4.474;2024-03-02T00:21:55;2.78;;;0.40;;
72611;SDS011;60655;52.182;4.474;2024-03-02T00:25:57;1.25;;;0.45;;
72611;SDS011;60655;52.182;4.474;2024-03-02T00:30:00;1.58;;;0.50;;
72611;SDS011;60655;52.182;4.474;2024-03-02T00:32:02;1.45;;;0.77;;
72611;SDS011;60655;52.182;4.474;2024-03-02T00:36:05;1.05;;;0.50;;
72611;SDS011;60655;52.182;4.474;2024-03-02T00:38:07;2.33;;;0.77;;
72611;SDS011;60655;52.182;4.474;2024-03-02T00:40:08;1.65;;;0.70;;
72611;SDS011;60655;52.182;4.474;2024-03-02T00:42:11;3.22;;;0.80;;
72611;SDS011;60655;52.182;4.474;2024-03-02T00:44:12;2.15;;;0.80;;
72611;SDS011;60655;52.182;4.474;2024-03-02T00:46:17;2.45;;;0.65;;
72611;SDS011;60655;52.182;4.474;2024-03-02T00:48:19;1.85;;;0.70;;
72611;SDS011;60655;52.182;4.474;2024-03-02T00:52:21;2.15;;;0.60;;
72611;SDS011;60655;52.182;4.474;2024-03-02T00:56:27;1.80;;;0.60;;
72611;SDS011;60655;52.182;4.474;2024-03-02T00:58:28;2.63;;;0.52;;
72611;SDS011;60655;52.182;4.474;2024-03-02T01:02:29;0.88;;;0.40;;
72611;SDS011;60655;52.182;4.474;2024-03-02T01:04:30;1.02;;;0.40;;
72611;SDS011;60655;52.182;4.474;2024-03-02T01:06:31;2.65;;;0.60;;
72611;SDS011;60655;52.182;4.474;2024-03-02T01:10:33;1.20;;;0.60;;
72611;SDS011;60655;52.182;4.474;2024-03-02T01:12:34;2.97;;;0.70;;
72611;SDS011;60655;52.182;4.474;2024-03-02T01:16:35;2.67;;;0.60;;
72611;SDS011;60655;52.182;4.474;2024-03-02T01:18:36;1.40;;;0.50;;
72611;SDS011;60655;52.182;4.474;2024-03-02T01:20:37;2.20;;;0.60;;
72611;SDS011;60655;52.182;4.474;2024-03-02T01:24:39;1.88;;;0.40;;
72611;SDS011;60655;52.182;4.474;2024-03-02T01:26:41;0.52;;;0.40;;
72611;SDS011;60655;52.182;4.474;2024-03-02T01:30:42;3.25;;;0.75;;
72611;SDS011;60655;52.182;4.474;2024-03-02T01:32:43;2.80;;;0.85;;
72611;SDS011;60655;52.182;4.474;2024-03-02T01:36:45;2.50;;;0.82;;
72611;SDS011;60655;52.182;4.474;2024-03-02T01:38:46;1.58;;;0.73;;
72611;SDS011;60655;52.182;4.474;2024-03-02T01:40:47;5.72;;;1.17;;
72611;SDS011;60655;52.182;4.474;2024-03-02T01:44:49;1.63;;;0.77;;
72611;SDS011;60655;52.182;4.474;2024-03-02T01:46:49;2.85;;;1.00;;
72611;SDS011;60655;52.182;4.474;2024-03-02T01:48:51;2.63;;;0.90;;
72611;SDS011;60655;52.182;4.474;2024-03-02T01:52:53;1.65;;;0.63;;
72611;SDS011;60655;52.182;4.474;2024-03-02T01:54:54;3.08;;;0.80;;
72611;SDS011;60655;52.182;4.474;2024-03-02T01:56:55;2.10;;;0.63;;
72611;SDS011;60655;52.182;4.474;2024-03-02T01:58:56;1.10;;;0.52;;
72611;SDS011;60655;52.182;4.474;2024-03-02T02:00:57;2.28;;;0.70;;
72611;SDS011;60655;52.182;4.474;2024-03-02T02:02:58;2.05;;;0.68;;
72611;SDS011;60655;52.182;4.474;2024-03-02T02:04:59;2.47;;;0.50;;
72611;SDS011;60655;52.182;4.474;2024-03-02T02:07:00;1.60;;;0.43;;
72611;SDS011;60655;52.182;4.474;2024-03-02T02:09:01;1.52;;;0.52;;
72611;SDS011;60655;52.182;4.474;2024-03-02T02:11:02;3.10;;;0.90;;
72611;SDS011;60655;52.182;4.474;2024-03-02T02:13:03;1.67;;;0.65;;
72611;SDS011;60655;52.182;4.474;2024-03-02T02:17:21;1.42;;;0.55;;
72611;SDS011;60655;52.182;4.474;2024-03-02T02:19:22;2.22;;;0.88;;
72611;SDS011;60655;52.182;4.474;2024-03-02T02:23:24;2.30;;;0.88;;
72611;SDS011;60655;52.182;4.474;2024-03-02T02:25:25;3.85;;;0.95;;
72611;SDS011;60655;52.182;4.474;2024-03-02T02:27:26;3.20;;;0.95;;
72611;SDS011;60655;52.182;4.474;2024-03-02T02:29:27;3.30;;;1.30;;
72611;SDS011;60655;52.182;4.474;2024-03-02T02:31:36;8.15;;;1.40;;
72611;SDS011;60655;52.182;4.474;2024-03-02T02:33:41;4.43;;;1.70;;
72611;SDS011;60655;52.182;4.474;2024-03-02T02:35:43;7.20;;;1.63;;
72611;SDS011;60655;52.182;4.474;2024-03-02T02:37:44;5.50;;;2.00;;
72611;SDS011;60655;52.182;4.474;2024-03-02T02:39:47;8.23;;;1.92;;
72611;SDS011;60655;52.182;4.474;2024-03-02T02:41:48;4.80;;;2.03;;
72611;SDS011;60655;52.182;4.474;2024-03-02T02:43:49;6.35;;;2.03;;
72611;SDS011;60655;52.182;4.474;2024-03-02T02:45:50;5.78;;;2.10;;
72611;SDS011;60655;52.182;4.474;2024-03-02T02:49:52;4.70;;;1.77;;
72611;SDS011;60655;52.182;4.474;2024-03-02T02:51:52;4.63;;;1.98;;
72611;SDS011;60655;52.182;4.474;2024-03-02T02:53:53;8.05;;;2.50;;
72611;SDS011;60655;52.182;4.474;2024-03-02T02:55:54;5.50;;;2.03;;
72611;SDS011;60655;52.182;4.474;2024-03-02T02:57:55;6.55;;;2.47;;
72611;SDS011;60655;52.182;4.474;2024-03-02T02:59:56;5.75;;;2.03;;
72611;SDS011;60655;52.182;4.474;2024-03-02T03:01:57;5.25;;;2.10;;
72611;SDS011;60655;52.182;4.474;2024-03-02T03:05:59;5.25;;;1.88;;
72611;SDS011;60655;52.182;4.474;2024-03-02T03:08:00;5.78;;;1.90;;
72611;SDS011;60655;52.182;4.474;2024-03-02T03:10:01;5.32;;;1.70;;
72611;SDS011;60655;52.182;4.474;2024-03-02T03:12:02;6.53;;;1.80;;
72611;SDS011;60655;52.182;4.474;2024-03-02T03:16:05;3.03;;;0.93;;
72611;SDS011;60655;52.182;4.474;2024-03-02T03:20:08;3.70;;;1.42;;
72611;SDS011;60655;52.182;4.474;2024-03-02T03:22:13;3.00;;;1.40;;
72611;SDS011;60655;52.182;4.474;2024-03-02T03:24:13;6.15;;;1.73;;
72611;SDS011;60655;52.182;4.474;2024-03-02T03:28:15;5.55;;;1.75;;
72611;SDS011;60655;52.182;4.474;2024-03-02T03:30:16;5.70;;;1.58;;
72611;SDS011;60655;52.182;4.474;2024-03-02T03:32:17;6.90;;;1.65;;
72611;SDS011;60655;52.182;4.474;2024-03-02T03:34:18;6.78;;;1.98;;
72611;SDS011;60655;52.182;4.474;2024-03-02T03:36:19;3.42;;;1.40;;
72611;SDS011;60655;52.182;4.474;2024-03-02T03:38:20;4.60;;;1.50;;
72611;SDS011;60655;52.182;4.474;2024-03-02T03:40:21;3.20;;;1.52;;
72611;SDS011;60655;52.182;4.474;2024-03-02T03:42:22;5.05;;;1.55;;
72611;SDS011;60655;52.182;4.474;2024-03-02T03:44:22;3.83;;;1.48;;
72611;SDS011;60655;52.182;4.474;2024-03-02T03:46:23;3.65;;;1.50;;
72611;SDS011;60655;52.182;4.474;2024-03-02T03:48:24;2.72;;;1.17;;
72611;SDS011;60655;52.182;4.474;2024-03-02T03:50:31;5.15;;;1.77;;
72611;SDS011;60655;52.182;4.474;2024-03-02T03:54:32;4.97;;;1.40;;
72611;SDS011;60655;52.182;4.474;2024-03-02T03:56:33;4.32;;;1.30;;
72611;SDS011;60655;52.182;4.474;2024-03-02T04:00:35;2.75;;;1.20;;
72611;SDS011;60655;52.182;4.474;2024-03-02T04:02:36;3.92;;;1.50;;
72611;SDS011;60655;52.182;4.474;2024-03-02T04:04:37;4.25;;;1.25;;
72611;SDS011;60655;52.182;4.474;2024-03-02T04:06:38;3.80;;;1.30;;
72611;SDS011;60655;52.182;4.474;2024-03-02T04:08:39;3.75;;;1.45;;
72611;SDS011;60655;52.182;4.474;2024-03-02T04:10:42;5.20;;;1.40;;
72611;SDS011;60655;52.182;4.474;2024-03-02T04:12:42;6.53;;;1.40;;
72611;SDS011;60655;52.182;4.474;2024-03-02T04:16:44;3.05;;;1.13;;
72611;SDS011;60655;52.182;4.474;2024-03-02T04:20:46;3.40;;;1.13;;
72611;SDS011;60655;52.182;4.474;2024-03-02T04:22:47;2.60;;;1.10;;
72611;SDS011;60655;52.182;4.474;2024-03-02T04:26:48;2.67;;;1.13;;
72611;SDS011;60655;52.182;4.474;2024-03-02T04:30:50;5.18;;;1.15;;
72611;SDS011;60655;52.182;4.474;2024-03-02T04:32:51;4.88;;;0.98;;
72611;SDS011;60655;52.182;4.474;2024-03-02T04:34:52;4.75;;;1.30;;
72611;SDS011;60655;52.182;4.474;2024-03-02T04:38:54;4.10;;;1.20;;
72611;SDS011;60655;52.182;4.474;2024-03-02T04:40:55;4.30;;;1.55;;
72611;SDS011;60655;52.182;4.474;2024-03-02T04:44:57;5.65;;;1.17;;
72611;SDS011;60655;52.182;4.474;2024-03-02T04:48:58;4.93;;;1.65;;
72611;SDS011;60655;52.182;4.474;2024-03-02T04:53:00;4.97;;;1.38;;
72611;SDS011;60655;52.182;4.474;2024-03-02T04:57:17;3.03;;;1.08;;
72611;SDS011;60655;52.182;4.474;2024-03-02T04:59:18;2.92;;;1.42;;
72611;SDS011;60655;52.182;4.474;2024-03-02T05:01:19;3.75;;;1.30;;
72611;SDS011;60655;52.182;4.474;2024-03-02T05:05:21;3.35;;;1.17;;
72611;SDS011;60655;52.182;4.474;2024-03-02T05:07:22;3.58;;;1.20;;
72611;SDS011;60655;52.182;4.474;2024-03-02T05:11:24;1.48;;;0.88;;
72611;SDS011;60655;52.182;4.474;2024-03-02T05:13:50;2.38;;;0.93;;
72611;SDS011;60655;52.182;4.474;2024-03-02T05:17:52;3.65;;;1.00;;
72611;SDS011;60655;52.182;4.474;2024-03-02T05:19:53;3.83;;;1.20;;
72611;SDS011;60655;52.182;4.474;2024-03-02T05:21:54;5.72;;;1.00;;
72611;SDS011;60655;52.182;4.474;2024-03-02T05:25:56;2.80;;;1.10;;
72611;SDS011;60655;52.182;4.474;2024-03-02T05:27:57;5.38;;;1.17;;
72611;SDS011;60655;52.182;4.474;2024-03-02T05:29:58;3.38;;;1.20;;
72611;SDS011;60655;52.182;4.474;2024-03-02T05:32:02;3.67;;;1.20;;
72611;SDS011;60655;52.182;4.474;2024-03-02T05:34:03;8.55;;;1.20;;
72611;SDS011;60655;52.182;4.474;2024-03-02T05:38:05;4.10;;;1.38;;
72611;SDS011;60655;52.182;4.474;2024-03-02T05:40:06;3.25;;;1.10;;
72611;SDS011;60655;52.182;4.474;2024-03-02T05:42:07;2.80;;;1.10;;
72611;SDS011;60655;52.182;4.474;2024-03-02T05:44:08;2.47;;;0.82;;
72611;SDS011;60655;52.182;4.474;2024-03-02T05:46:09;3.08;;;1.00;;
72611;SDS011;60655;52.182;4.474;2024-03-02T05:50:11;3.15;;;0.90;;
72611;SDS011;60655;52.182;4.474;2024-03-02T05:54:12;2.42;;;1.10;;
72611;SDS011;60655;52.182;4.474;2024-03-02T05:56:14;3.03;;;0.98;;
72611;SDS011;60655;52.182;4.474;2024-03-02T06:00:31;3.60;;;1.02;;
72611;SDS011;60655;52.182;4.474;2024-03-02T06:04:33;1.48;;;0.60;;
72611;SDS011;60655;52.182;4.474;2024-03-02T06:06:34;2.17;;;0.70;;
72611;SDS011;60655;52.182;4.474;2024-03-02T06:10:36;2.42;;;0.73;;
72611;SDS011;60655;52.182;4.474;2024-03-02T06:12:37;1.85;;;0.60;;
72611;SDS011;60655;52.182;4.474;2024-03-02T06:14:38;4.35;;;0.80;;
72611;SDS011;60655;52.182;4.474;2024-03-02T06:16:38;3.10;;;0.82;;
72611;SDS011;60655;52.182;4.474;2024-03-02T06:18:39;1.38;;;0.70;;
72611;SDS011;60655;52.182;4.474;2024-03-02T06:20:40;3.10;;;0.88;;
72611;SDS011;60655;52.182;4.474;2024-03-02T06:22:41;3.20;;;0.65;;
72611;SDS011;60655;52.182;4.474;2024-03-02T06:24:42;2.20;;;0.60;;
72611;SDS011;60655;52.182;4.474;2024-03-02T06:26:43;5.65;;;1.30;;
72611;SDS011;60655;52.182;4.474;2024-03-02T06:28:44;1.55;;;0.73;;
72611;SDS011;60655;52.182;4.474;2024-03-02T06:30:46;2.53;;;1.13;;
72611;SDS011;60655;52.182;4.474;2024-03-02T06:32:47;3.25;;;1.00;;
72611;SDS011;60655;52.182;4.474;2024-03-02T06:34:48;1.90;;;0.70;;
72611;SDS011;60655;52.182;4.474;2024-03-02T06:36:49;2.80;;;0.75;;
72611;SDS011;60655;52.182;4.474;2024-03-02T06:40:51;3.85;;;0.80;;
72611;SDS011;60655;52.182;4.474;2024-03-02T06:44:52;1.67;;;0.70;;
72611;SDS011;60655;52.182;4.474;2024-03-02T06:46:54;2.15;;;0.65;;
72611;SDS011;60655;52.182;4.474;2024-03-02T06:48:55;3.15;;;0.95;;
72611;SDS011;60655;52.182;4.474;2024-03-02T06:50:56;1.75;;;0.60;;
72611;SDS011;60655;52.182;4.474;2024-03-02T06:52:58;2.75;;;0.80;;
72611;SDS011;60655;52.182;4.474;2024-03-02T06:54:58;1.55;;;0.68;;
72611;SDS011;60655;52.182;4.474;2024-03-02T06:56:59;1.42;;;0.65;;
72611;SDS011;60655;52.182;4.474;2024-03-02T06:59:01;1.77;;;0.65;;
72611;SDS011;60655;52.182;4.474;2024-03-02T07:01:01;2.35;;;0.80;;
72611;SDS011;60655;52.182;4.474;2024-03-02T07:05:03;1.52;;;0.70;;
72611;SDS011;60655;52.182;4.474;2024-03-02T07:07:04;2.20;;;0.75;;
72611;SDS011;60655;52.182;4.474;2024-03-02T07:11:07;2.53;;;0.73;;
72611;SDS011;60655;52.182;4.474;2024-03-02T07:15:09;1.63;;;0.70;;
72611;SDS011;60655;52.182;4.474;2024-03-02T07:17:22;2.55;;;0.57;;
72611;SDS011;60655;52.182;4.474;2024-03-02T07:19:23;2.75;;;0.80;;
72611;SDS011;60655;52.182;4.474;2024-03-02T07:23:24;2.95;;;0.82;;
72611;SDS011;60655;52.182;4.474;2024-03-02T07:25:27;3.58;;;1.08;;
72611;SDS011;60655;52.182;4.474;2024-03-02T07:27:28;2.42;;;0.70;;
72611;SDS011;60655;52.182;4.474;2024-03-02T07:29:31;5.20;;;0.82;;
72611;SDS011;60655;52.182;4.474;2024-03-02T07:31:32;2.55;;;0.90;;
72611;SDS011;60655;52.182;4.474;2024-03-02T07:33:33;3.15;;;0.93;;
72611;SDS011;60655;52.182;4.474;2024-03-02T07:37:35;2.67;;;0.85;;
72611;SDS011;60655;52.182;4.474;2024-03-02T07:39:36;3.47;;;0.88;;
72611;SDS011;60655;52.182;4.474;2024-03-02T07:43:38;2.38;;;0.60;;
72611;SDS011;60655;52.182;4.474;2024-03-02T07:45:39;2.70;;;0.80;;
72611;SDS011;60655;52.182;4.474;2024-03-02T07:47:40;3.85;;;0.98;;
72611;SDS011;60655;52.182;4.474;2024-03-02T07:49:41;2.55;;;0.93;;
72611;SDS011;60655;52.182;4.474;2024-03-02T07:51:42;4.10;;;1.05;;
72611;SDS011;60655;52.182;4.474;2024-03-02T07:53:43;4.40;;;0.90;;
72611;SDS011;60655;52.182;4.474;2024-03-02T07:55:44;2.75;;;1.15;;
72611;SDS011;60655;52.182;4.474;2024-03-02T07:57:45;5.07;;;2.35;;
72611;SDS011;60655;52.182;4.474;2024-03-02T08:01:48;4.57;;;0.82;;
72611;SDS011;60655;52.182;4.474;2024-03-02T08:03:49;3.53;;;0.95;;
72611;SDS011;60655;52.182;4.474;2024-03-02T08:05:51;3.67;;;0.93;;
72611;SDS011;60655;52.182;4.474;2024-03-02T08:09:53;3.25;;;0.82;;
72611;SDS011;60655;52.182;4.474;2024-03-02T08:13:55;7.95;;;0.88;;
72611;SDS011;60655;52.182;4.474;2024-03-02T08:17:56;3.47;;;0.68;;
72611;SDS011;60655;52.182;4.474;2024-03-02T08:21:58;3.83;;;0.90;;
72611;SDS011;60655;52.182;4.474;2024-03-02T08:24:00;2.22;;;0.80;;
72611;SDS011;60655;52.182;4.474;2024-03-02T08:26:01;3.40;;;1.00;;
72611;SDS011;60655;52.182;4.474;2024-03-02T08:30:03;3.83;;;0.70;;
72611;SDS011;60655;52.182;4.474;2024-03-02T08:32:07;3.17;;;0.80;;
72611;SDS011;60655;52.182;4.474;2024-03-02T08:36:09;2.83;;;1.02;;
72611;SDS011;60655;52.182;4.474;2024-03-02T08:40:11;4.50;;;1.00;;
72611;SDS011;60655;52.182;4.474;2024-03-02T08:42:13;2.20;;;0.70;;
72611;SDS011;60655;52.182;4.474;2024-03-02T08:46:14;2.83;;;0.82;;
72611;SDS011;60655;52.182;4.474;2024-03-02T08:50:16;2.15;;;0.85;;
72611;SDS011;60655;52.182;4.474;2024-03-02T08:54:18;4.55;;;1.33;;
72611;SDS011;60655;52.182;4.474;2024-03-02T08:58:21;3.28;;;1.08;;
72611;SDS011;60655;52.182;4.474;2024-03-02T09:00:22;2.75;;;0.93;;
72611;SDS011;60655;52.182;4.474;2024-03-02T09:02:23;3.97;;;1.10;;
72611;SDS011;60655;52.182;4.474;2024-03-02T09:06:25;7.45;;;1.00;;
72611;SDS011;60655;52.182;4.474;2024-03-02T09:10:27;5.82;;;1.10;;
72611;SDS011;60655;52.182;4.474;2024-03-02T09:14:28;3.50;;;0.90;;
72611;SDS011;60655;52.182;4.474;2024-03-02T09:16:29;6.47;;;1.17;;
72611;SDS011;60655;52.182;4.474;2024-03-02T09:18:31;4.25;;;0.90;;
72611;SDS011;60655;52.182;4.474;2024-03-02T09:22:33;3.85;;;0.80;;
72611;SDS011;60655;52.182;4.474;2024-03-02T09:26:34;3.28;;;0.90;;
72611;SDS011;60655;52.182;4.474;2024-03-02T09:30:36;3.88;;;0.80;;
72611;SDS011;60655;52.182;4.474;2024-03-02T09:34:38;2.65;;;0.80;;
72611;SDS011;60655;52.182;4.474;2024-03-02T09:38:39;7.40;;;1.05;;
72611;SDS011;60655;52.182;4.474;2024-03-02T09:42:42;2.90;;;0.82;;
72611;SDS011;60655;52.182;4.474;2024-03-02T09:44:44;5.55;;;0.88;;
72611;SDS011;60655;52.182;4.474;2024-03-02T09:46:48;2.88;;;0.70;;
72611;SDS011;60655;52.182;4.474;2024-03-02T09:48:50;6.30;;;1.15;;
72611;SDS011;60655;52.182;4.474;2024-03-02T09:52:52;4.15;;;0.70;;
72611;SDS011;60655;52.182;4.474;2024-03-02T09:54:53;2.53;;;0.90;;
72611;SDS011;60655;52.182;4.474;2024-03-02T09:58:55;2.42;;;0.43;;
72611;SDS011;60655;52.182;4.474;2024-03-02T10:02:57;6.45;;;1.15;;
72611;SDS011;60655;52.182;4.474;2024-03-02T10:04:59;5.95;;;1.00;;
72611;SDS011;60655;52.182;4.474;2024-03-02T10:07:15;5.38;;;0.93;;
72611;SDS011;60655;52.182;4.474;2024-03-02T10:09:27;5.72;;;1.00;;
72611;SDS011;60655;52.182;4.474;2024-03-02T10:11:30;3.60;;;0.60;;
72611;SDS011;60655;52.182;4.474;2024-03-02T10:13:37;4.13;;;1.00;;
72611;SDS011;60655;52.182;4.474;2024-03-02T10:15:38;4.53;;;0.80;;
72611;SDS011;60655;52.182;4.474;2024-03-02T10:17:43;5.65;;;1.20;;
72611;SDS011;60655;52.182;4.474;2024-03-02T10:19:44;5.63;;;1.52;;
72611;SDS011;60655;52.182;4.474;2024-03-02T10:21:48;4.53;;;0.73;;
72611;SDS011;60655;52.182;4.474;2024-03-02T10:23:50;4.32;;;0.80;;
72611;SDS011;60655;52.182;4.474;2024-03-02T10:25:51;5.22;;;1.05;;
72611;SDS011;60655;52.182;4.474;2024-03-02T10:27:52;3.25;;;0.60;;
72611;SDS011;60655;52.182;4.474;2024-03-02T10:29:54;4.05;;;0.98;;
72611;SDS011;60655;52.182;4.474;2024-03-02T10:31:55;3.80;;;0.63;;
72611;SDS011;60655;52.182;4.474;2024-03-02T10:33:59;7.13;;;1.10;;
72611;SDS011;60655;52.182;4.474;2024-03-02T10:36:00;5.00;;;1.02;;
72611;SDS011;60655;52.182;4.474;2024-03-02T10:38:03;7.18;;;1.88;;
72611;SDS011;60655;52.182;4.474;2024-03-02T10:40:05;5.63;;;1.30;;
72611;SDS011;60655;52.182;4.474;2024-03-02T10:42:06;5.43;;;1.58;;
72611;SDS011;60655;52.182;4.474;2024-03-02T10:44:09;4.60;;;1.08;;
72611;SDS011;60655;52.182;4.474;2024-03-02T10:46:10;4.43;;;1.00;;
72611;SDS011;60655;52.182;4.474;2024-03-02T10:48:13;5.22;;;1.08;;
72611;SDS011;60655;52.182;4.474;2024-03-02T10:50:14;4.15;;;0.82;;
72611;SDS011;60655;52.182;4.474;2024-03-02T10:52:15;3.38;;;0.93;;
72611;SDS011;60655;52.182;4.474;2024-03-02T10:54:17;4.97;;;0.90;;
72611;SDS011;60655;52.182;4.474;2024-03-02T10:56:21;7.55;;;1.15;;
72611;SDS011;60655;52.182;4.474;2024-03-02T10:58:31;4.70;;;0.80;;
72611;SDS011;60655;52.182;4.474;2024-03-02T11:00:36;6.18;;;1.02;;
72611;SDS011;60655;52.182;4.474;2024-03-02T11:02:52;4.80;;;1.10;;
72611;SDS011;60655;52.182;4.474;2024-03-02T11:05:04;6.15;;;0.80;;
72611;SDS011;60655;52.182;4.474;2024-03-02T11:07:09;8.10;;;1.05;;
72611;SDS011;60655;52.182;4.474;2024-03-02T11:09:11;4.68;;;0.88;;
72611;SDS011;60655;52.182;4.474;2024-03-02T11:11:15;7.05;;;0.93;;
72611;SDS011;60655;52.182;4.474;2024-03-02T11:13:30;6.75;;;1.20;;
72611;SDS011;60655;52.182;4.474;2024-03-02T11:15:32;6.25;;;1.45;;
72611;SDS011;60655;52.182;4.474;2024-03-02T11:17:36;7.07;;;1.20;;
72611;SDS011;60655;52.182;4.474;2024-03-02T11:19:39;6.03;;;0.90;;
72611;SDS011;60655;52.182;4.474;2024-03-02T11:21:41;5.50;;;0.82;;
72611;SDS011;60655;52.182;4.474;2024-03-02T11:23:43;4.60;;;0.80;;
72611;SDS011;60655;52.182;4.474;2024-03-02T11:25:44;6.47;;;0.70;;
72611;SDS011;60655;52.182;4.474;2024-03-02T11:29:46;5.00;;;0.80;;
72611;SDS011;60655;52.182;4.474;2024-03-02T11:31:57;8.27;;;0.95;;
72611;SDS011;60655;52.182;4.474;2024-03-02T11:34:06;6.10;;;0.90;;
72611;SDS011;60655;52.182;4.474;2024-03-02T11:36:18;6.50;;;1.42;;
72611;SDS011;60655;52.182;4.474;2024-03-02T11:38:19;5.10;;;0.65;;
72611;SDS011;60655;52.182;4.474;2024-03-02T11:40:24;6.90;;;0.60;;
72611;SDS011;60655;52.182;4.474;2024-03-02T11:42:26;7.38;;;0.77;;
72611;SDS011;60655;52.182;4.474;2024-03-02T11:44:30;6.82;;;1.08;;
72611;SDS011;60655;52.182;4.474;2024-03-02T11:46:33;5.45;;;0.90;;
72611;SDS011;60655;52.182;4.474;2024-03-02T11:48:35;7.05;;;0.80;;
72611;SDS011;60655;52.182;4.474;2024-03-02T11:50:49;4.90;;;0.82;;
72611;SDS011;60655;52.182;4.474;2024-03-02T11:52:50;3.97;;;0.80;;
72611;SDS011;60655;52.182;4.474;2024-03-02T11:54:51;6.68;;;0.95;;
72611;SDS011;60655;52.182;4.474;2024-03-02T11:56:54;5.32;;;0.80;;
72611;SDS011;60655;52.182;4.474;2024-03-02T11:58:55;3.67;;;0.88;;
72611;SDS011;60655;52.182;4.474;2024-03-02T12:00:56;6.63;;;1.20;;
72611;SDS011;60655;52.182;4.474;2024-03-02T12:03:15;6.07;;;1.05;;
72611;SDS011;60655;52.182;4.474;2024-03-02T12:05:16;5.07;;;1.00;;
72611;SDS011;60655;52.182;4.474;2024-03-02T12:07:18;4.55;;;0.63;;
72611;SDS011;60655;52.182;4.474;2024-03-02T12:09:21;5.00;;;1.17;;
72611;SDS011;60655;52.182;4.474;2024-03-02T12:11:23;6.63;;;1.20;;
72611;SDS011;60655;52.182;4.474;2024-03-02T12:13:23;3.95;;;1.15;;
72611;SDS011;60655;52.182;4.474;2024-03-02T12:15:28;6.07;;;0.70;;
72611;SDS011;60655;52.182;4.474;2024-03-02T12:17:31;3.67;;;0.82;;
72611;SDS011;60655;52.182;4.474;2024-03-02T12:19:32;5.95;;;0.70;;
72611;SDS011;60655;52.182;4.474;2024-03-02T12:21:33;5.35;;;0.70;;
72611;SDS011;60655;52.182;4.474;2024-03-02T12:23:34;4.00;;;1.38;;
72611;SDS011;60655;52.182;4.474;2024-03-02T12:25:35;5.10;;;1.02;;
72611;SDS011;60655;52.182;4.474;2024-03-02T12:27:36;4.88;;;0.73;;
72611;SDS011;60655;52.182;4.474;2024-03-02T12:29:39;4.28;;;1.00;;
72611;SDS011;60655;52.182;4.474;2024-03-02T12:31:40;3.97;;;0.90;;
72611;SDS011;60655;52.182;4.474;2024-03-02T12:33:41;2.35;;;0.57;;
72611;SDS011;60655;52.182;4.474;2024-03-02T12:35:42;2.80;;;0.65;;
72611;SDS011;60655;52.182;4.474;2024-03-02T12:39:48;5.55;;;1.00;;
72611;SDS011;60655;52.182;4.474;2024-03-02T12:41:50;2.92;;;0.60;;
72611;SDS011;60655;52.182;4.474;2024-03-02T12:43:51;4.07;;;0.82;;
72611;SDS011;60655;52.182;4.474;2024-03-02T12:45:52;4.20;;;0.80;;
72611;SDS011;60655;52.182;4.474;2024-03-02T12:47:56;2.35;;;0.60;;
72611;SDS011;60655;52.182;4.474;2024-03-02T12:49:57;3.45;;;0.73;;
72611;SDS011;60655;52.182;4.474;2024-03-02T12:51:59;4.72;;;0.65;;
72611;SDS011;60655;52.182;4.474;2024-03-02T12:54:00;5.15;;;0.52;;
72611;SDS011;60655;52.182;4.474;2024-03-02T12:56:02;3.63;;;0.68;;
72611;SDS011;60655;52.182;4.474;2024-03-02T12:58:04;1.08;;;0.43;;
72611;SDS011;60655;52.182;4.474;2024-03-02T13:00:05;6.20;;;0.65;;
72611;SDS011;60655;52.182;4.474;2024-03-02T13:02:16;4.78;;;0.63;;
72611;SDS011;60655;52.182;4.474;2024-03-02T13:04:21;6.10;;;0.80;;
72611;SDS011;60655;52.182;4.474;2024-03-02T13:06:25;5.55;;;0.85;;
72611;SDS011;60655;52.182;4.474;2024-03-02T13:08:29;6.95;;;0.98;;
72611;SDS011;60655;52.182;4.474;2024-03-02T13:10:31;4.63;;;0.75;;
72611;SDS011;60655;52.182;4.474;2024-03-02T13:12:32;7.28;;;1.08;;
72611;SDS011;60655;52.182;4.474;2024-03-02T13:14:33;5.05;;;0.80;;
72611;SDS011;60655;52.182;4.474;2024-03-02T13:16:39;4.60;;;0.70;;
72611;SDS011;60655;52.182;4.474;2024-03-02T13:18:41;5.07;;;0.90;;
72611;SDS011;60655;52.182;4.474;2024-03-02T13:20:42;4.03;;;0.80;;
72611;SDS011;60655;52.182;4.474;2024-03-02T13:22:43;5.13;;;0.90;;
72611;SDS011;60655;52.182;4.474;2024-03-02T13:24:43;2.95;;;0.57;;
72611;SDS011;60655;52.182;4.474;2024-03-02T13:26:44;3.63;;;0.70;;
72611;SDS011;60655;52.182;4.474;2024-03-02T13:28:46;3.45;;;0.63;;
72611;SDS011;60655;52.182;4.474;2024-03-02T13:30:47;4.50;;;0.70;;
72611;SDS011;60655;52.182;4.474;2024-03-02T13:32:48;6.03;;;1.00;;
72611;SDS011;60655;52.182;4.474;2024-03-02T13:34:49;4.65;;;0.80;;
72611;SDS011;60655;52.182;4.474;2024-03-02T13:36:50;5.50;;;1.00;;
72611;SDS011;60655;52.182;4.474;2024-03-02T13:38:51;6.35;;;1.08;;
72611;SDS011;60655;52.182;4.474;2024-03-02T13:40:52;3.13;;;0.57;;
72611;SDS011;60655;52.182;4.474;2024-03-02T13:42:53;6.10;;;0.70;;
72611;SDS011;60655;52.182;4.474;2024-03-02T13:44:54;5.05;;;0.70;;
72611;SDS011;60655;52.182;4.474;2024-03-02T13:46:55;7.55;;;0.73;;
72611;SDS011;60655;52.182;4.474;2024-03-02T13:48:56;5.90;;;0.85;;
72611;SDS011;60655;52.182;4.474;2024-03-02T13:50:58;4.10;;;0.60;;
72611;SDS011;60655;52.182;4.474;2024-03-02T13:52:58;2.83;;;0.70;;
72611;SDS011;60655;52.182;4.474;2024-03-02T13:54:59;5.43;;;0.82;;
72611;SDS011;60655;52.182;4.474;2024-03-02T13:57:00;2.70;;;0.60;;
72611;SDS011;60655;52.182;4.474;2024-03-02T13:59:01;8.90;;;0.75;;
72611;SDS011;60655;52.182;4.474;2024-03-02T14:01:02;4.72;;;0.70;;
72611;SDS011;60655;52.182;4.474;2024-03-02T14:03:07;5.93;;;0.75;;
72611;SDS011;60655;52.182;4.474;2024-03-02T14:05:09;4.50;;;0.88;;
72611;SDS011;60655;52.182;4.474;2024-03-02T14:07:14;3.67;;;0.80;;
72611;SDS011;60655;52.182;4.474;2024-03-02T14:09:15;4.50;;;0.57;;
72611;SDS011;60655;52.182;4.474;2024-03-02T14:11:16;3.83;;;0.52;;
72611;SDS011;60655;52.182;4.474;2024-03-02T14:13:17;3.72;;;0.50;;
72611;SDS011;60655;52.182;4.474;2024-03-02T14:15:18;6.13;;;0.82;;
72611;SDS011;60655;52.182;4.474;2024-03-02T14:17:19;3.08;;;0.63;;
72611;SDS011;60655;52.182;4.474;2024-03-02T14:19:20;4.55;;;0.63;;
72611;SDS011;60655;52.182;4.474;2024-03-02T14:21:22;8.07;;;0.80;;
72611;SDS011;60655;52.182;4.474;2024-03-02T14:23:22;2.83;;;0.60;;
72611;SDS011;60655;52.182;4.474;2024-03-02T14:25:23;4.57;;;0.90;;
72611;SDS011;60655;52.182;4.474;2024-03-02T14:27:24;3.90;;;0.82;;
72611;SDS011;60655;52.182;4.474;2024-03-02T14:29:26;6.35;;;0.60;;
72611;SDS011;60655;52.182;4.474;2024-03-02T14:31:27;2.38;;;0.60;;
72611;SDS011;60655;52.182;4.474;2024-03-02T14:33:28;6.22;;;0.85;;
72611;SDS011;60655;52.182;4.474;2024-03-02T14:35:29;5.65;;;0.73;;
72611;SDS011;60655;52.182;4.474;2024-03-02T14:37:30;3.83;;;0.80;;
72611;SDS011;60655;52.182;4.474;2024-03-02T14:39:31;4.78;;;0.68;;
72611;SDS011;60655;52.182;4.474;2024-03-02T14:41:35;3.00;;;0.73;;
72611;SDS011;60655;52.182;4.474;2024-03-02T14:43:36;1.95;;;0.50;;
72611;SDS011;60655;52.182;4.474;2024-03-02T14:45:37;2.45;;;0.57;;
72611;SDS011;60655;52.182;4.474;2024-03-02T14:47:38;6.50;;;0.70;;
72611;SDS011;60655;52.182;4.474;2024-03-02T14:49:39;4.72;;;0.70;;
72611;SDS011;60655;52.182;4.474;2024-03-02T14:51:42;7.57;;;0.90;;
72611;SDS011;60655;52.182;4.474;2024-03-02T14:53:44;2.90;;;0.60;;
72611;SDS011;60655;52.182;4.474;2024-03-02T14:55:45;7.40;;;0.88;;